Time;durP1;ratioP1;P1;durP2;ratioP2;P2;SDS_P1;SDS_P2;PMS_P1;PMS_P2;Temp;Humidity;BMP_temperature;BMP_pressure;BME280_temperature;BME280_humidity;BME280_pressure;Samples;Min_cycle;Max_cycle;Signal;HPM_P1;HPM_P2
2023/04/24 00:00:17;;;;;;;4.65;3.38;;;;;;;17.02;50.16;92359.34;4863918;29;20049;-92
2023/04/24 00:02:46;;;;;;;5.70;4.28;;;;;;;16.97;49.90;92358.19;4849361;29;20048;-91
2023/04/24 00:05:13;;;;;;;5.03;3.47;;;;;;;17.04;49.86;92359.56;4859814;29;20045;-91
2023/04/24 00:07:39;;;;;;;4.97;3.53;;;;;;;16.99;50.09;92363.13;4860307;29;20408;-91
2023/04/24 00:10:05;;;;;;;5.32;3.90;;;;;;;16.98;49.87;92358.91;4856537;29;20045;-91
2023/04/24 00:12:30;;;;;;;6.70;4.15;;;;;;;16.95;50.02;92366.16;4841352;29;20062;-92
2023/04/24 00:14:56;;;;;;;5.20;3.58;;;;;;;17.00;49.89;92359.13;4849528;29;20056;-93
2023/04/24 00:17:22;;;;;;;5.18;3.75;;;;;;;17.00;49.68;92361.88;4880614;29;22502;-91
2023/04/24 00:19:51;;;;;;;5.57;3.90;;;;;;;16.99;50.04;92363.84;4883949;29;20045;-91
2023/04/24 00:22:17;;;;;;;4.35;3.58;;;;;;;16.97;49.58;92354.72;4897359;29;20131;-92
2023/04/24 00:24:42;;;;;;;3.90;3.30;;;;;;;16.99;50.09;92354.94;4896236;29;20122;-92
2023/04/24 00:27:08;;;;;;;4.88;3.67;;;;;;;16.97;49.96;92355.47;4887444;29;20407;-92
2023/04/24 00:29:33;;;;;;;3.60;3.30;;;;;;;16.98;50.17;92356.94;4918238;29;20044;-92
2023/04/24 00:31:59;;;;;;;4.40;3.22;;;;;;;17.00;49.91;92354.41;4902874;29;20051;-92
2023/04/24 00:34:25;;;;;;;4.65;3.60;;;;;;;16.97;49.83;92349.25;4911790;29;20044;-92
2023/04/24 00:36:52;;;;;;;4.50;3.58;;;;;;;16.93;49.80;92357.75;4910497;29;20051;-91
2023/04/24 00:39:18;;;;;;;6.47;3.78;;;;;;;16.99;50.16;92354.94;4904505;29;20044;-92
2023/04/24 00:41:45;;;;;;;5.97;3.83;;;;;;;16.99;49.95;92360.38;4913762;29;20043;-91
2023/04/24 00:44:10;;;;;;;4.95;3.55;;;;;;;16.99;49.73;92363.84;4913001;29;20036;-91
2023/04/24 00:46:37;;;;;;;4.63;3.75;;;;;;;16.98;50.09;92356.19;4902428;29;20191;-91
2023/04/24 00:49:02;;;;;;;4.82;3.78;;;;;;;16.98;50.11;92358.91;4909995;29;20122;-92
2023/04/24 00:51:28;;;;;;;4.72;3.85;;;;;;;16.96;49.96;92361.44;4910306;29;20040;-94
2023/04/24 00:53:55;;;;;;;4.65;3.47;;;;;;;17.02;49.96;92353.88;4910742;29;20036;-93
2023/04/24 00:56:20;;;;;;;4.55;3.55;;;;;;;16.98;50.02;92361.66;4918370;29;20035;-91
2023/04/24 00:58:46;;;;;;;4.60;2.90;;;;;;;16.98;49.93;92358.91;4911526;29;20102;-91
2023/04/24 01:01:11;;;;;;;4.95;3.22;;;;;;;16.98;49.80;92362.38;4902768;29;20052;-93
2023/04/24 01:03:37;;;;;;;4.22;3.17;;;;;;;16.97;49.57;92360.19;4916080;29;20486;-91
2023/04/24 01:06:02;;;;;;;5.13;3.10;;;;;;;16.96;49.81;92364.16;4904062;29;20073;-92
2023/04/24 01:08:28;;;;;;;4.70;3.35;;;;;;;16.98;49.77;92361.66;4914698;29;20083;-92
2023/04/24 01:10:54;;;;;;;3.72;2.70;;;;;;;16.95;49.78;92362.69;4897757;29;20131;-92
2023/04/24 01:13:20;;;;;;;5.25;3.13;;;;;;;17.00;50.15;92359.13;4893850;29;20050;-92
2023/04/24 01:15:46;;;;;;;6.28;3.42;;;;;;;16.96;49.90;92361.44;4882619;29;20045;-93
2023/04/24 01:18:11;;;;;;;4.28;3.33;;;;;;;16.98;50.15;92361.66;4880239;29;20029;-92
2023/04/24 01:20:39;;;;;;;4.55;3.22;;;;;;;16.96;50.33;92367.63;4901971;29;20039;-92
2023/04/24 01:23:05;;;;;;;4.18;3.28;;;;;;;16.94;50.05;92372.16;4907765;29;20055;-92
2023/04/24 01:25:31;;;;;;;4.63;3.00;;;;;;;16.98;49.88;92370.56;4913491;29;20070;-92
2023/04/24 01:27:57;;;;;;;4.28;2.53;;;;;;;16.98;49.84;92367.84;4918305;29;20042;-92
2023/04/24 01:30:22;;;;;;;5.13;2.78;;;;;;;16.98;50.17;92378.03;4901529;29;20039;-91
2023/04/24 01:32:48;;;;;;;4.05;3.17;;;;;;;16.94;49.84;92381.06;4889331;29;20045;-91
2023/04/24 01:35:13;;;;;;;4.95;3.20;;;;;;;16.91;50.04;92370.47;4896144;29;20139;-91
2023/04/24 01:37:39;;;;;;;4.72;3.33;;;;;;;16.93;49.81;92373.41;4912736;29;20036;-92
2023/04/24 01:40:06;;;;;;;4.72;2.75;;;;;;;16.92;49.90;92377.41;4884730;29;20048;-92
2023/04/24 01:42:32;;;;;;;3.83;2.92;;;;;;;16.95;50.09;92385.28;4894320;29;20040;-92
2023/04/24 01:44:57;;;;;;;3.38;2.50;;;;;;;16.89;49.59;92376.44;4883061;29;20135;-92
2023/04/24 01:47:23;;;;;;;3.45;2.92;;;;;;;16.93;50.13;92382.34;4876458;29;20048;-91
2023/04/24 01:49:49;;;;;;;3.72;2.95;;;;;;;16.97;49.88;92371.84;4900605;29;20503;-92
2023/04/24 01:52:16;;;;;;;5.05;2.67;;;;;;;16.99;49.73;92368.59;4908592;29;20106;-91
2023/04/24 01:54:41;;;;;;;4.13;2.78;;;;;;;16.96;49.67;92369.63;4893132;29;20054;-92
2023/04/24 01:57:07;;;;;;;5.30;2.58;;;;;;;16.97;50.08;92371.09;4880970;29;20032;-92
2023/04/24 01:59:33;;;;;;;3.65;2.63;;;;;;;16.95;49.90;92365.44;4891528;29;20044;-92
2023/04/24 02:01:58;;;;;;;3.28;2.78;;;;;;;16.94;49.92;92369.41;4896622;29;20043;-91
2023/04/24 02:04:24;;;;;;;3.47;2.92;;;;;;;16.94;49.90;92358.50;4884393;29;20134;-91
2023/04/24 02:06:49;;;;;;;3.97;2.60;;;;;;;16.95;50.11;92371.63;4890427;29;20044;-91
2023/04/24 02:09:15;;;;;;;3.85;2.50;;;;;;;16.97;49.85;92360.91;4892128;29;20048;-92
2023/04/24 02:11:40;;;;;;;4.53;2.83;;;;;;;16.92;50.05;92358.28;4881026;29;20045;-92
2023/04/24 02:14:06;;;;;;;4.50;2.97;;;;;;;16.91;49.79;92359.53;4895741;29;20386;-91
2023/04/24 02:16:32;;;;;;;3.40;2.40;;;;;;;16.93;49.84;92355.03;4880742;29;20040;-91
2023/04/24 02:18:58;;;;;;;4.63;2.92;;;;;;;16.94;49.87;92359.22;4891801;29;20848;-91
2023/04/24 02:21:23;;;;;;;4.30;2.53;;;;;;;16.93;49.73;92348.84;4908615;29;20044;-91
2023/04/24 02:23:49;;;;;;;2.90;2.47;;;;;;;16.95;49.85;92352.50;4883970;29;20044;-91
2023/04/24 02:26:18;;;;;;;3.63;2.83;;;;;;;16.94;49.93;92350.31;4887848;29;20051;-90
2023/04/24 02:28:43;;;;;;;4.50;2.90;;;;;;;16.91;50.09;92352.09;4888678;29;20060;-91
2023/04/24 02:31:09;;;;;;;3.33;2.60;;;;;;;16.88;49.88;92347.72;4906537;29;20056;-92
2023/04/24 02:33:35;;;;;;;2.63;2.30;;;;;;;16.93;49.43;92341.38;4882008;29;20045;-92
2023/04/24 02:36:01;;;;;;;3.33;2.60;;;;;;;16.95;50.26;92344.31;4902690;29;20047;-92
2023/04/24 02:38:27;;;;;;;3.95;2.70;;;;;;;16.93;49.89;92344.13;4889762;29;20064;-92
2023/04/24 02:40:52;;;;;;;4.13;2.97;;;;;;;16.92;50.17;92345.38;4904091;29;20114;-91
2023/04/24 02:43:18;;;;;;;3.97;2.50;;;;;;;16.91;50.08;92345.91;4902237;29;20037;-91
2023/04/24 02:45:43;;;;;;;3.35;2.40;;;;;;;16.94;49.93;92344.84;4886720;29;20067;-91
2023/04/24 02:48:09;;;;;;;3.10;2.55;;;;;;;16.94;49.96;92339.38;4874303;29;20120;-92
2023/04/24 02:50:34;;;;;;;3.22;2.47;;;;;;;16.96;49.81;92331.41;4892170;29;20112;-90
2023/04/24 02:53:00;;;;;;;4.18;2.78;;;;;;;16.95;49.82;92336.13;4889032;29;20059;-91
2023/04/24 02:55:25;;;;;;;3.80;2.53;;;;;;;16.92;50.11;92334.47;4891118;29;20043;-92
2023/04/24 02:57:51;;;;;;;3.50;2.67;;;;;;;16.90;49.60;92325.31;4897594;29;20062;-91
2023/04/24 03:00:16;;;;;;;3.05;2.25;;;;;;;16.93;50.05;92333.19;4906595;29;20071;-91
2023/04/24 03:02:42;;;;;;;3.92;2.28;;;;;;;16.91;50.08;92330.25;4906027;29;20044;-90
2023/04/24 03:05:08;;;;;;;2.78;2.50;;;;;;;16.94;50.09;92323.75;4905577;29;20067;-91
2023/04/24 03:07:34;;;;;;;4.45;2.58;;;;;;;16.88;49.97;92314.22;4898011;29;20059;-91
2023/04/24 03:10:00;;;;;;;2.83;2.08;;;;;;;16.91;49.83;92316.59;4883652;29;20040;-91
2023/04/24 03:12:25;;;;;;;3.35;2.33;;;;;;;16.91;50.00;92313.88;4886573;29;20052;-91
2023/04/24 03:14:51;;;;;;;2.78;2.00;;;;;;;16.88;49.83;92316.94;4912878;29;20054;-92
2023/04/24 03:17:16;;;;;;;3.40;2.30;;;;;;;16.92;50.04;92317.34;4904869;29;20035;-91
2023/04/24 03:19:42;;;;;;;2.85;1.85;;;;;;;16.92;50.14;92307.16;4896113;29;20070;-92
2023/04/24 03:22:09;;;;;;;3.22;2.28;;;;;;;16.87;49.78;92312.75;4882138;29;20043;-92
2023/04/24 03:24:34;;;;;;;2.83;2.30;;;;;;;16.86;50.00;92314.75;4893004;29;20039;-91
2023/04/24 03:27:00;;;;;;;2.60;1.80;;;;;;;16.89;50.14;92310.94;4887693;29;20097;-92
2023/04/24 03:29:25;;;;;;;2.80;1.88;;;;;;;16.86;49.75;92308.56;4878523;29;20591;-91
2023/04/24 03:31:51;;;;;;;2.53;2.05;;;;;;;16.91;49.92;92316.59;4910097;29;20039;-90
2023/04/24 03:34:16;;;;;;;3.38;2.50;;;;;;;16.85;49.89;92307.81;4884662;28;20039;-92
2023/04/24 03:36:42;;;;;;;2.85;2.17;;;;;;;16.88;49.84;92316.94;4901783;29;20063;-92
2023/04/24 03:39:07;;;;;;;5.20;3.90;;;;;;;16.83;49.88;92312.34;4911430;28;20048;-89
2023/04/24 03:41:33;;;;;;;10.07;6.75;;;;;;;16.81;49.77;92315.59;4922023;29;20047;-85
2023/04/24 03:43:58;;;;;;;6.57;4.45;;;;;;;16.81;49.88;92317.59;4914767;29;20046;-88
2023/04/24 03:46:24;;;;;;;17.30;13.13;;;;;;;16.82;49.81;92325.25;4878656;28;20048;-88
2023/04/24 03:48:49;;;;;;;71.95;36.10;;;;;;;16.86;49.85;92330.38;4919479;29;20055;-91
2023/04/24 03:51:15;;;;;;;4.20;2.65;;;;;;;16.79;49.63;92327.03;4855830;29;20043;-94
2023/04/24 03:53:41;;;;;;;4.65;2.47;;;;;;;16.86;50.19;92325.66;4890391;29;20044;-90
2023/04/24 03:56:06;;;;;;;57.95;8.48;;;;;;;16.75;50.16;92329.34;4915707;29;20059;-91
2023/04/24 03:58:32;;;;;;;70.57;9.75;;;;;;;16.70;51.42;92327.44;4889579;29;20054;-90
2023/04/24 04:00:58;;;;;;;196.48;28.90;;;;;;;16.69;51.51;92327.97;4880205;29;20058;-88
2023/04/24 04:03:25;;;;;;;83.57;15.85;;;;;;;16.63;51.58;92322.63;4888085;29;20060;-90
2023/04/24 04:05:50;;;;;;;71.25;12.73;;;;;;;16.80;51.50;92333.22;4919611;29;20048;-89
2023/04/24 04:08:16;;;;;;;33.97;9.65;;;;;;;16.68;51.74;92334.69;4889622;29;20422;-87
2023/04/24 04:10:42;;;;;;;49.97;13.63;;;;;;;16.66;51.65;92332.50;4904830;29;20040;-89
2023/04/24 04:13:07;;;;;;;18.52;5.75;;;;;;;16.65;52.73;92336.50;4874921;29;20099;-89
2023/04/24 04:15:33;;;;;;;18.25;6.55;;;;;;;16.67;52.42;92339.41;4895784;29;20048;-88
2023/04/24 04:17:58;;;;;;;22.77;7.82;;;;;;;16.57;52.34;92341.06;4892620;29;20028;-88
2023/04/24 04:20:24;;;;;;;26.13;8.48;;;;;;;16.63;52.79;92341.72;4904221;28;20199;-87
2023/04/24 04:22:50;;;;;;;45.45;10.48;;;;;;;16.60;52.72;92348.22;4928797;29;20040;-90
2023/04/24 04:25:15;;;;;;;33.83;9.27;;;;;;;16.59;52.84;92346.75;4897521;29;20148;-89
2023/04/24 04:27:41;;;;;;;30.98;10.73;;;;;;;16.56;53.39;92347.78;4891462;29;20048;-90
2023/04/24 04:30:08;;;;;;;46.90;12.13;;;;;;;16.51;53.52;92345.88;4901202;28;20653;-87
2023/04/24 04:32:37;;;;;;;60.97;17.60;;;;;;;16.50;53.46;92352.59;4902587;29;20044;-90
2023/04/24 04:35:03;;;;;;;88.10;23.02;;;;;;;16.57;53.15;92343.78;4900901;29;20100;-89
2023/04/24 04:37:33;;;;;;;89.32;31.35;;;;;;;16.60;53.17;92356.41;4904663;29;20059;-90
2023/04/24 04:40:00;;;;;;;89.43;27.98;;;;;;;16.68;53.10;92354.50;4895824;29;20044;-90
2023/04/24 04:42:26;;;;;;;78.85;24.77;;;;;;;16.63;53.07;92355.38;4898556;29;20181;-89
2023/04/24 04:44:52;;;;;;;97.57;28.83;;;;;;;16.66;52.88;92356.31;4877059;29;20066;-90
2023/04/24 04:47:24;;;;;;;99.30;29.58;;;;;;;16.69;52.92;92355.25;4908735;29;20894;-89
2023/04/24 04:49:52;;;;;;;81.60;29.10;;;;;;;16.76;52.32;92352.63;4914127;29;20079;-90
2023/04/24 04:52:18;;;;;;;89.28;29.58;;;;;;;16.71;52.21;92353.47;4901862;29;20098;-90
2023/04/24 04:54:44;;;;;;;101.93;34.05;;;;;;;16.66;52.54;92361.78;4915329;29;20051;-89
2023/04/24 04:57:10;;;;;;;84.35;30.50;;;;;;;16.71;52.03;92363.66;4926607;29;20047;-90
2023/04/24 04:59:35;;;;;;;118.28;40.42;;;;;;;16.74;52.06;92366.06;4901208;29;20612;-89
2023/04/24 05:02:01;;;;;;;117.60;42.60;;;;;;;16.68;52.67;92367.44;4897415;29;20048;-87
2023/04/24 05:04:26;;;;;;;109.45;44.55;;;;;;;16.78;52.01;92363.75;4915427;29;20040;-89
2023/04/24 05:06:52;;;;;;;140.50;47.63;;;;;;;16.74;51.81;92368.81;4924978;29;20095;-89
2023/04/24 05:09:18;;;;;;;119.85;47.10;;;;;;;16.71;51.58;92361.66;4899053;29;20039;-88
2023/04/24 05:11:43;;;;;;;119.22;47.95;;;;;;;16.78;52.08;92371.22;4915684;29;20090;-92
2023/04/24 05:14:09;;;;;;;151.30;60.67;;;;;;;16.76;51.97;92377.19;4904163;29;20040;-88
2023/04/24 05:16:36;;;;;;;189.23;81.38;;;;;;;16.76;51.54;92376.47;4939915;29;20141;-89
2023/04/24 05:19:02;;;;;;;155.10;61.40;;;;;;;16.91;51.75;92387.59;4931281;28;20050;-89
2023/04/24 05:21:29;;;;;;;206.10;83.60;;;;;;;16.92;51.82;92383.59;4899109;29;20608;-89
2023/04/24 05:23:55;;;;;;;226.55;101.25;;;;;;;16.85;52.07;92378.78;4910195;29;20051;-91
2023/04/24 05:26:22;;;;;;;220.45;92.88;;;;;;;16.84;52.08;92371.84;4916122;29;20044;-88
2023/04/24 05:28:49;;;;;;;271.52;119.13;;;;;;;16.83;51.80;92377.84;4899447;29;20048;-90
2023/04/24 05:31:17;;;;;;;243.20;108.32;;;;;;;16.88;52.04;92385.94;4895570;29;20047;-89
2023/04/24 05:33:43;;;;;;;300.35;143.55;;;;;;;16.83;51.80;92380.56;4898459;29;20419;-89
2023/04/24 05:36:08;;;;;;;283.80;124.50;;;;;;;16.91;51.93;92381.38;4909567;29;20052;-89
2023/04/24 05:38:33;;;;;;;285.25;129.10;;;;;;;16.97;51.57;92380.03;4895835;29;20047;-90
2023/04/24 05:41:00;;;;;;;308.60;139.85;;;;;;;16.98;51.40;92384.22;4893305;29;20194;-90
2023/04/24 05:43:25;;;;;;;290.73;138.77;;;;;;;16.86;51.73;92382.25;4889723;29;20137;-90
2023/04/24 05:45:51;;;;;;;319.20;140.63;;;;;;;16.89;51.62;92389.38;4897317;29;20062;-88
2023/04/24 05:48:16;;;;;;;323.63;145.77;;;;;;;16.91;51.56;92387.59;4890537;29;20044;-88
2023/04/24 05:50:42;;;;;;;274.42;123.18;;;;;;;17.00;51.54;92386.44;4909603;29;20040;-88
2023/04/24 05:53:07;;;;;;;297.70;132.68;;;;;;;16.98;51.72;92386.22;4909505;29;20063;-88
2023/04/24 05:55:34;;;;;;;289.58;123.95;;;;;;;16.99;51.44;92385.69;4895983;29;20040;-87
2023/04/24 05:57:59;;;;;;;268.08;120.22;;;;;;;17.03;51.72;92386.13;4918684;29;20037;-88
2023/04/24 06:00:25;;;;;;;263.77;120.93;;;;;;;16.95;51.68;92377.09;4917569;29;20138;-91
2023/04/24 06:02:51;;;;;;;235.98;112.55;;;;;;;17.04;51.78;92389.59;4898031;29;20131;-87
2023/04/24 06:05:17;;;;;;;230.00;107.10;;;;;;;17.10;51.37;92398.41;4908109;29;20040;-86
2023/04/24 06:07:44;;;;;;;220.18;99.40;;;;;;;17.11;51.40;92391.66;4909980;29;20119;-88
2023/04/24 06:10:10;;;;;;;236.85;111.43;;;;;;;17.08;51.63;92398.19;4899555;29;20043;-85
2023/04/24 06:12:36;;;;;;;200.60;100.18;;;;;;;17.10;51.31;92401.84;4919729;29;20041;-91
2023/04/24 06:15:02;;;;;;;206.18;99.78;;;;;;;17.10;51.60;92401.13;4910025;29;20173;-88
2023/04/24 06:17:30;;;;;;;236.52;113.35;;;;;;;16.98;51.16;92406.06;4887420;29;20040;-89
2023/04/24 06:19:55;;;;;;;190.18;93.57;;;;;;;17.05;51.63;92393.78;4911534;29;20452;-87
2023/04/24 06:22:21;;;;;;;181.43;92.15;;;;;;;17.13;51.38;92400.78;4886251;29;20119;-87
2023/04/24 06:24:48;;;;;;;218.32;104.88;;;;;;;17.07;51.59;92389.28;4914487;29;20047;-88
2023/04/24 06:27:13;;;;;;;212.95;94.68;;;;;;;17.09;51.46;92392.22;4884277;29;20045;-87
2023/04/24 06:29:40;;;;;;;309.65;116.75;;;;;;;17.02;51.31;92390.09;4911460;29;20052;-89
2023/04/24 06:32:05;;;;;;;150.85;63.88;;;;;;;17.07;51.52;92385.81;4894647;29;20040;-89
2023/04/24 06:34:33;;;;;;;208.30;60.72;;;;;;;16.88;51.72;92388.66;4907433;29;20040;-90
2023/04/24 06:36:59;;;;;;;109.75;36.92;;;;;;;16.91;52.09;92395.78;4908954;29;20127;-91
2023/04/24 06:39:25;;;;;;;94.72;39.55;;;;;;;16.89;52.13;92392.13;4890517;29;20155;-90
2023/04/24 06:41:50;;;;;;;82.93;37.97;;;;;;;16.95;52.24;92396.19;4885521;29;20059;-90
2023/04/24 06:44:16;;;;;;;105.47;43.08;;;;;;;16.88;51.75;92396.84;4897295;29;20162;-89
2023/04/24 06:46:42;;;;;;;92.82;39.33;;;;;;;16.98;52.03;92397.13;4896191;29;20431;-92
2023/04/24 06:49:09;;;;;;;139.77;52.00;;;;;;;16.93;52.72;92397.97;4902221;29;20059;-89
2023/04/24 06:51:35;;;;;;;306.45;224.00;;;;;;;16.90;52.67;92399.75;4903184;29;20051;-90
2023/04/24 06:54:01;;;;;;;118.07;49.60;;;;;;;16.88;52.03;92407.03;4892074;29;20040;-91
2023/04/24 06:56:28;;;;;;;108.80;47.65;;;;;;;16.91;51.95;92414.13;4905226;29;20068;-91
2023/04/24 06:58:54;;;;;;;108.70;47.00;;;;;;;16.91;52.20;92406.69;4896533;29;20045;-92
2023/04/24 07:01:19;;;;;;;160.30;63.75;;;;;;;16.95;51.94;92409.09;4891063;29;20052;-90
2023/04/24 07:03:45;;;;;;;163.25;72.03;;;;;;;16.98;52.17;92414.25;4895202;29;20074;-90
2023/04/24 07:06:11;;;;;;;153.75;67.22;;;;;;;16.91;52.08;92414.88;4910721;29;20036;-89
2023/04/24 07:08:36;;;;;;;147.35;67.80;;;;;;;16.85;52.18;92419.00;4923034;28;20048;-89
2023/04/24 07:11:02;;;;;;;136.02;63.30;;;;;;;16.95;51.78;92409.84;4896249;29;20455;-89
2023/04/24 07:13:28;;;;;;;204.77;73.68;;;;;;;17.05;52.01;92413.63;4897208;29;20134;-89
2023/04/24 07:15:54;;;;;;;200.52;76.15;;;;;;;16.95;51.74;92414.56;4894874;29;20067;-89
2023/04/24 07:18:20;;;;;;;207.32;71.07;;;;;;;16.98;51.81;92408.78;4890602;29;20063;-88
2023/04/24 07:20:46;;;;;;;199.10;76.80;;;;;;;17.04;51.75;92422.34;4920848;29;20048;-86
2023/04/24 07:23:11;;;;;;;199.45;75.93;;;;;;;16.96;51.99;92416.03;4908568;29;20039;-88
2023/04/24 07:25:38;;;;;;;169.40;77.55;;;;;;;16.94;51.63;92413.84;4894081;29;20047;-89
2023/04/24 07:28:04;;;;;;;184.65;86.80;;;;;;;17.04;51.53;92417.63;4901181;29;20754;-90
2023/04/24 07:30:30;;;;;;;170.93;75.53;;;;;;;17.07;51.99;92418.56;4911111;29;20043;-90
2023/04/24 07:32:55;;;;;;;186.43;86.25;;;;;;;17.00;52.01;92416.47;4896007;29;20052;-90
2023/04/24 07:35:21;;;;;;;217.95;102.18;;;;;;;16.97;51.92;92423.72;4908039;29;20036;-87
2023/04/24 07:37:46;;;;;;;255.88;121.95;;;;;;;16.97;51.77;92422.97;4895825;29;20035;-89
2023/04/24 07:40:12;;;;;;;289.90;135.23;;;;;;;17.05;51.85;92410.91;4912522;29;20044;-89
2023/04/24 07:42:38;;;;;;;318.42;156.82;;;;;;;17.05;52.03;92424.56;4910505;29;20123;-89
2023/04/24 07:45:04;;;;;;;281.45;138.82;;;;;;;17.04;51.79;92423.09;4928007;29;20102;-90
2023/04/24 07:47:30;;;;;;;285.35;146.10;;;;;;;16.97;51.71;92425.69;4913745;29;20526;-88
2023/04/24 07:49:55;;;;;;;278.75;139.07;;;;;;;17.07;51.90;92426.75;4907329;29;20062;-88
2023/04/24 07:52:21;;;;;;;296.75;150.18;;;;;;;17.00;51.80;92430.84;4896367;29;20086;-89
2023/04/24 07:54:46;;;;;;;274.45;141.70;;;;;;;17.02;52.20;92430.31;4898118;29;20094;-89
2023/04/24 07:57:12;;;;;;;268.88;132.90;;;;;;;17.10;51.74;92431.19;4912315;29;20035;-89
2023/04/24 07:59:37;;;;;;;260.55;127.72;;;;;;;16.99;51.89;92434.84;4913574;29;20032;-90
2023/04/24 08:02:03;;;;;;;258.30;134.00;;;;;;;17.00;52.08;92432.84;4927026;29;20581;-87
2023/04/24 08:04:28;;;;;;;215.98;110.68;;;;;;;17.05;51.94;92432.75;4909010;29;20056;-87
2023/04/24 08:06:55;;;;;;;253.02;127.68;;;;;;;16.99;52.75;92443.03;4893932;29;20134;-89
2023/04/24 08:09:21;;;;;;;257.60;129.93;;;;;;;17.01;51.77;92445.97;4913377;29;20055;-89
2023/04/24 08:11:47;;;;;;;269.60;132.57;;;;;;;17.03;51.92;92445.44;4897345;29;20052;-89
2023/04/24 08:14:13;;;;;;;263.05;129.52;;;;;;;17.00;51.90;92444.50;4914022;29;20044;-88
2023/04/24 08:16:38;;;;;;;220.63;114.22;;;;;;;17.04;52.15;92449.66;4912330;29;20047;-87
2023/04/24 08:19:04;;;;;;;270.33;131.98;;;;;;;17.10;52.25;92453.03;4899001;29;20177;-90
2023/04/24 08:21:29;;;;;;;260.73;123.22;;;;;;;17.07;51.96;92448.59;4910144;29;20424;-91
2023/04/24 08:23:55;;;;;;;243.15;117.65;;;;;;;17.12;52.12;92445.00;4927239;29;20090;-90
2023/04/24 08:26:20;;;;;;;254.30;123.57;;;;;;;17.11;52.31;92443.53;4911869;29;20045;-91
2023/04/24 08:28:46;;;;;;;264.20;128.65;;;;;;;17.11;51.95;92452.47;4897987;29;20150;-90
2023/04/24 08:31:11;;;;;;;225.32;104.47;;;;;;;17.05;52.44;92457.31;4910682;29;20043;-90
2023/04/24 08:33:36;;;;;;;252.20;109.10;;;;;;;17.03;52.04;92457.09;4922402;29;20043;-90
2023/04/24 08:36:03;;;;;;;202.82;83.80;;;;;;;16.99;51.95;92456.69;4903794;29;20403;-93
2023/04/24 08:38:28;;;;;;;204.15;86.97;;;;;;;17.09;51.83;92457.00;4924587;29;20067;-89
2023/04/24 08:40:54;;;;;;;197.77;86.45;;;;;;;17.01;52.27;92453.44;4914776;29;20440;-89
2023/04/24 08:43:21;;;;;;;189.00;84.20;;;;;;;17.11;51.99;92455.19;4895741;29;20050;-90
2023/04/24 08:45:47;;;;;;;230.07;104.97;;;;;;;17.01;52.27;92456.91;4899107;29;20047;-90
2023/04/24 08:48:12;;;;;;;207.55;98.65;;;;;;;17.07;52.05;92463.00;4896927;29;20087;-90
2023/04/24 08:50:38;;;;;;;183.50;95.55;;;;;;;17.11;52.09;92457.94;4894309;29;20032;-89
2023/04/24 08:53:03;;;;;;;217.52;92.75;;;;;;;17.09;52.12;92462.47;4909969;29;20032;-91
2023/04/24 08:55:29;;;;;;;241.98;106.28;;;;;;;17.05;52.07;92467.50;4895813;29;20044;-90
2023/04/24 08:57:55;;;;;;;199.30;94.57;;;;;;;17.10;52.16;92458.47;4897448;29;20031;-92
2023/04/24 09:00:21;;;;;;;191.20;96.13;;;;;;;17.09;52.45;92478.84;4914922;29;20076;-88
2023/04/24 09:02:49;;;;;;;180.65;90.53;;;;;;;17.11;52.13;92459.94;4905421;29;20044;-90
2023/04/24 09:05:17;;;;;;;196.77;93.07;;;;;;;17.05;52.23;92468.25;4908398;29;20407;-91
2023/04/24 09:07:45;;;;;;;167.05;88.18;;;;;;;17.09;51.88;92463.22;4898410;29;20039;-88
2023/04/24 09:10:11;;;;;;;163.15;80.25;;;;;;;17.05;52.17;92462.78;4900247;29;20113;-88
2023/04/24 09:12:37;;;;;;;124.13;56.05;;;;;;;17.05;52.68;92464.78;4903268;29;20048;-89
2023/04/24 09:15:03;;;;;;;96.50;44.28;;;;;;;17.01;53.47;92472.53;4914136;29;20103;-89
2023/04/24 09:17:30;;;;;;;71.60;33.63;;;;;;;17.04;53.77;92466.78;4918086;29;20062;-90
2023/04/24 09:19:57;;;;;;;71.95;30.52;;;;;;;16.93;54.24;92468.94;4906456;29;20444;-91
2023/04/24 09:22:22;;;;;;;57.35;25.33;;;;;;;16.93;54.54;92472.41;4912404;29;20044;-90
2023/04/24 09:24:48;;;;;;;61.03;23.77;;;;;;;16.98;54.54;92462.66;4915642;29;20050;-89
2023/04/24 09:27:14;;;;;;;215.05;43.42;;;;;;;16.89;55.04;92472.00;4913484;28;20039;-92
2023/04/24 09:29:53;;;;;;;178.25;41.67;;;;;;;16.81;55.39;92467.69;4896862;29;20048;-89
2023/04/24 09:32:21;;;;;;;132.10;35.15;;;;;;;16.84;55.53;92470.13;4896338;29;20062;-91
2023/04/24 09:34:47;;;;;;;107.35;38.67;;;;;;;16.84;55.63;92458.47;4919534;29;20391;-94
2023/04/24 09:37:26;;;;;;;133.38;39.83;;;;;;;16.74;55.25;92471.78;4926319;29;20063;-89
2023/04/24 09:40:14;;;;;;;97.60;32.10;;;;;;;16.79;54.64;92470.94;4902822;29;20071;-91
2023/04/24 09:42:52;;;;;;;106.78;37.00;;;;;;;16.81;54.30;92473.88;4903837;29;20119;-92
2023/04/24 09:45:18;;;;;;;88.80;33.58;;;;;;;16.62;55.26;92470.47;4916754;29;20474;-92
2023/04/24 09:47:44;;;;;;;115.30;39.40;;;;;;;16.66;55.43;92479.84;4901676;29;20039;-89
2023/04/24 09:50:14;;;;;;;77.60;30.83;;;;;;;16.65;55.39;92474.91;4899126;29;20095;-89
2023/04/24 09:52:42;;;;;;;104.07;37.15;;;;;;;16.60;55.12;92478.44;4899945;29;20040;-89
2023/04/24 09:55:18;;;;;;;81.57;27.50;;;;;;;16.67;55.29;92475.84;4900294;29;20048;-88
2023/04/24 09:57:50;;;;;;;68.03;26.38;;;;;;;16.68;55.14;92476.56;4911231;29;20044;-87
2023/04/24 10:00:21;;;;;;;175.85;29.98;;;;;;;16.62;55.55;92476.66;4907152;29;20133;-86
2023/04/24 10:02:49;;;;;;;67.53;22.27;;;;;;;16.63;55.96;92467.25;4910919;29;20055;-89
2023/04/24 10:05:16;;;;;;;51.33;23.80;;;;;;;16.53;56.86;92470.84;4899840;29;20095;-88
2023/04/24 10:07:41;;;;;;;50.17;25.38;;;;;;;16.60;56.15;92464.78;4900789;29;20097;-89
2023/04/24 10:10:07;;;;;;;40.20;19.17;;;;;;;16.64;55.96;92468.00;4908261;29;20764;-91
2023/04/24 10:12:32;;;;;;;36.70;18.13;;;;;;;16.53;56.60;92463.41;4921051;29;20063;-87
2023/04/24 10:14:58;;;;;;;42.28;21.73;;;;;;;16.59;56.69;92482.41;4911598;29;20139;-88
2023/04/24 10:17:24;;;;;;;36.80;19.75;;;;;;;16.60;56.37;92471.00;4880560;29;20036;-89
2023/04/24 10:19:49;;;;;;;26.02;14.50;;;;;;;16.51;56.29;92476.84;4879108;29;20044;-90
2023/04/24 10:22:16;;;;;;;22.45;12.57;;;;;;;16.50;56.21;92475.34;4904108;29;20353;-88
2023/04/24 10:24:42;;;;;;;19.23;10.93;;;;;;;16.59;55.78;92469.50;4911874;29;20087;-89
2023/04/24 10:27:07;;;;;;;29.15;11.95;;;;;;;16.57;55.73;92471.28;4925165;29;20040;-88
2023/04/24 10:29:34;;;;;;;404.05;289.42;;;;;;;16.52;56.07;92472.13;4911947;29;20689;-88
2023/04/24 10:31:59;;;;;;;120.05;69.13;;;;;;;16.68;55.77;92477.31;4898526;29;20103;-89
2023/04/24 10:34:25;;;;;;;52.65;21.27;;;;;;;16.64;56.00;92470.72;4900140;29;20139;-89
2023/04/24 10:36:51;;;;;;;58.67;21.42;;;;;;;16.73;55.94;92471.03;4927203;29;20044;-89
2023/04/24 10:39:17;;;;;;;52.88;25.25;;;;;;;16.82;55.66;92477.34;4890853;29;20180;-90
2023/04/24 10:41:43;;;;;;;58.60;26.90;;;;;;;16.81;55.79;92473.88;4916143;29;20051;-91
2023/04/24 10:44:13;;;;;;;55.95;31.23;;;;;;;16.91;55.50;92468.75;4912634;29;20044;-90
2023/04/24 10:46:39;;;;;;;;;;;;;;;16.83;55.74;92473.38;4912877;29;20052;-90
2023/04/24 10:49:08;;;;;;;58.40;27.25;;;;;;;16.83;55.59;92462.44;4911927;29;20413;-90
2023/04/24 10:51:50;;;;;;;59.88;25.90;;;;;;;16.86;55.36;92464.13;4895254;29;20043;-88
2023/04/24 10:54:36;;;;;;;63.92;29.02;;;;;;;16.82;55.68;92461.72;4908838;29;20043;-92
2023/04/24 10:57:17;;;;;;;64.03;30.05;;;;;;;16.92;55.12;92462.75;4889099;29;20134;-89
2023/04/24 10:59:43;;;;;;;60.55;30.10;;;;;;;16.94;55.00;92464.97;4917680;29;20043;-91
2023/04/24 11:02:09;;;;;;;66.82;33.38;;;;;;;16.94;55.26;92457.50;4920804;29;20047;-87
2023/04/24 11:04:37;;;;;;;60.83;31.20;;;;;;;16.98;55.07;92466.13;4911022;29;20044;-91
2023/04/24 11:07:03;;;;;;;70.72;33.72;;;;;;;16.90;55.38;92462.53;4891875;29;20065;-91
2023/04/24 11:09:30;;;;;;;62.08;31.60;;;;;;;16.90;55.20;92467.25;4913795;29;20119;-90
2023/04/24 11:12:06;;;;;;;88.63;35.20;;;;;;;16.92;55.37;92470.94;4915903;29;20048;-90
2023/04/24 11:14:58;;;;;;;77.30;33.95;;;;;;;16.94;54.74;92471.16;4915274;29;20047;-89